Time;durP1;ratioP1;P1;durP2;ratioP2;P2;SDS_P1;SDS_P2;PMS_P1;PMS_P2;Temp;Humidity;BMP_temperature;BMP_pressure;BME280_temperature;BME280_humidity;BME280_pressure;Samples;Min_cycle;Max_cycle;Signal;HPM_P1;HPM_P2
2020/12/15 00:00:08;;;;;;;4.20;3.15;;;9.10;99.90;;;;;;5095410;28;20036;-73
2020/12/15 00:02:34;;;;;;;4.70;2.80;;;9.00;99.90;;;;;;5095052;28;20055;-73
2020/12/15 00:05:00;;;;;;;4.35;3.00;;;9.00;99.90;;;;;;5095591;28;20477;-74
2020/12/15 00:07:25;;;;;;;6.30;3.05;;;9.00;99.90;;;;;;5096733;28;20056;-73
2020/12/15 00:09:51;;;;;;;4.70;3.30;;;9.10;99.90;;;;;;5094856;28;20091;-73
2020/12/15 00:12:17;;;;;;;3.83;2.97;;;9.10;99.90;;;;;;5094815;28;20028;-73
2020/12/15 00:14:42;;;;;;;4.53;3.33;;;9.20;99.90;;;;;;5096473;28;20020;-73
2020/12/15 00:17:08;;;;;;;4.05;2.80;;;9.20;99.90;;;;;;5078678;28;20032;-73
2020/12/15 00:19:33;;;;;;;5.55;3.30;;;9.20;99.90;;;;;;5095030;28;20020;-73
2020/12/15 00:21:59;;;;;;;5.72;3.03;;;9.20;99.90;;;;;;5077779;28;20028;-73
2020/12/15 00:24:24;;;;;;;3.13;2.38;;;9.30;99.90;;;;;;5096130;28;20036;-73
2020/12/15 00:26:50;;;;;;;4.97;2.60;;;9.30;99.90;;;;;;5096322;28;20035;-73
2020/12/15 00:29:16;;;;;;;2.90;2.22;;;9.40;99.90;;;;;;5077675;28;20032;-73
2020/12/15 00:31:44;;;;;;;3.78;2.25;;;9.40;99.90;;;;;;5094419;28;20224;-73
2020/12/15 00:34:09;;;;;;;5.57;2.28;;;9.30;99.90;;;;;;5095361;28;20401;-73
2020/12/15 00:36:35;;;;;;;6.75;2.50;;;9.30;99.90;;;;;;5077473;28;20031;-73
2020/12/15 00:39:01;;;;;;;3.25;2.53;;;9.40;99.90;;;;;;5094681;28;20020;-73
2020/12/15 00:41:27;;;;;;;4.00;1.95;;;9.40;99.90;;;;;;5096014;28;20074;-73
2020/12/15 00:43:53;;;;;;;2.55;2.17;;;9.30;99.90;;;;;;5095752;28;20081;-73
2020/12/15 00:46:19;;;;;;;5.07;2.40;;;9.40;99.90;;;;;;5077249;28;20024;-73
2020/12/15 00:48:45;;;;;;;6.90;2.47;;;9.50;99.90;;;;;;5077246;28;20397;-73
2020/12/15 00:51:18;;;;;;;2.50;2.13;;;9.50;99.90;;;;;;5094066;28;20024;-73
2020/12/15 00:53:45;;;;;;;4.55;2.38;;;9.40;99.90;;;;;;5094634;28;20032;-73
2020/12/15 00:56:11;;;;;;;3.22;2.20;;;9.40;99.90;;;;;;5095192;28;20069;-73
2020/12/15 00:58:37;;;;;;;3.70;2.20;;;9.40;99.90;;;;;;5094018;28;20059;-74
2020/12/15 01:01:04;;;;;;;4.07;2.47;;;9.40;99.90;;;;;;5095685;28;20023;-73
2020/12/15 01:03:30;;;;;;;3.58;2.35;;;9.40;99.90;;;;;;5094454;28;20016;-73
2020/12/15 01:05:55;;;;;;;3.65;2.45;;;9.50;99.90;;;;;;5094467;28;20072;-73
2020/12/15 01:08:21;;;;;;;3.90;2.45;;;9.50;99.90;;;;;;5093779;28;20020;-73
2020/12/15 01:10:47;;;;;;;6.18;2.25;;;9.50;99.90;;;;;;5094345;28;20175;-74
2020/12/15 01:13:12;;;;;;;4.30;2.40;;;9.40;99.90;;;;;;5077660;28;20034;-73
2020/12/15 01:15:38;;;;;;;4.30;2.30;;;9.50;99.90;;;;;;5093512;28;20035;-74
2020/12/15 01:18:03;;;;;;;3.25;2.30;;;9.60;99.90;;;;;;5077257;28;20020;-74
2020/12/15 01:20:29;;;;;;;5.40;2.90;;;9.50;99.90;;;;;;5076854;28;20358;-74
2020/12/15 01:22:54;;;;;;;4.55;2.55;;;9.60;99.90;;;;;;5093470;28;20024;-74
2020/12/15 01:25:20;;;;;;;4.35;2.25;;;9.60;99.90;;;;;;5094945;28;20099;-73
2020/12/15 01:27:45;;;;;;;4.25;2.35;;;9.90;99.90;;;;;;5093764;28;20048;-73
2020/12/15 01:30:11;;;;;;;2.88;2.20;;;9.90;99.90;;;;;;5093963;28;20024;-73
2020/12/15 01:32:36;;;;;;;3.67;2.47;;;10.00;99.90;;;;;;5093535;28;20036;-73
2020/12/15 01:35:03;;;;;;;4.85;2.03;;;10.10;99.90;;;;;;5093031;28;20043;-74
2020/12/15 01:37:29;;;;;;;3.72;2.20;;;10.10;99.90;;;;;;5094715;28;20066;-73
2020/12/15 01:39:54;;;;;;;4.13;2.40;;;10.10;99.90;;;;;;5093819;28;20024;-73
2020/12/15 01:42:20;;;;;;;8.38;3.28;;;10.10;99.90;;;;;;5094889;28;20377;-73
2020/12/15 01:44:45;;;;;;;4.55;2.42;;;10.10;99.90;;;;;;5094378;28;20024;-73
2020/12/15 01:47:14;;;;;;;6.30;2.72;;;10.20;99.90;;;;;;5093379;28;20032;-73
2020/12/15 01:49:42;;;;;;;8.52;2.85;;;10.10;99.90;;;;;;5092952;28;20473;-73
2020/12/15 01:52:08;;;;;;;6.80;3.05;;;10.10;99.90;;;;;;5094718;28;20047;-73
2020/12/15 01:54:34;;;;;;;6.38;3.38;;;10.00;99.90;;;;;;5094341;28;20020;-73
2020/12/15 01:57:00;;;;;;;6.72;3.20;;;10.00;99.90;;;;;;5094679;28;20031;-73
2020/12/15 01:59:27;;;;;;;4.82;2.83;;;10.00;99.90;;;;;;5094628;28;20498;-73
2020/12/15 02:01:52;;;;;;;3.67;2.00;;;10.00;99.90;;;;;;5094566;28;20016;-73
2020/12/15 02:04:18;;;;;;;4.70;2.22;;;9.90;99.90;;;;;;5093964;28;20065;-73
2020/12/15 02:06:47;;;;;;;6.95;2.55;;;9.90;99.90;;;;;;5093250;28;20020;-73
2020/12/15 02:09:16;;;;;;;3.70;2.30;;;9.80;99.90;;;;;;5076030;28;20441;-73
2020/12/15 02:11:43;;;;;;;2.67;1.92;;;9.80;99.90;;;;;;5092610;28;20116;-73
2020/12/15 02:14:09;;;;;;;2.85;2.35;;;9.70;99.90;;;;;;5092867;28;20030;-73
2020/12/15 02:16:39;;;;;;;3.47;2.03;;;9.70;99.90;;;;;;5094321;28;20408;-73
2020/12/15 02:19:06;;;;;;;2.75;2.00;;;9.70;99.90;;;;;;5075745;28;20103;-73
2020/12/15 02:21:32;;;;;;;4.15;2.53;;;9.70;99.90;;;;;;5075613;28;20020;-73
2020/12/15 02:23:57;;;;;;;3.42;2.50;;;9.60;99.90;;;;;;5092407;28;20381;-73
2020/12/15 02:26:23;;;;;;;5.20;2.38;;;9.50;99.90;;;;;;5094254;28;20028;-73
2020/12/15 02:28:49;;;;;;;3.30;2.75;;;9.40;99.90;;;;;;5093092;28;20527;-73
2020/12/15 02:31:15;;;;;;;4.13;2.70;;;9.40;99.90;;;;;;5075600;28;20055;-73
2020/12/15 02:33:40;;;;;;;3.88;2.38;;;9.30;99.90;;;;;;5093343;28;20047;-73
2020/12/15 02:36:06;;;;;;;3.30;2.40;;;9.20;99.90;;;;;;5092626;28;20028;-73
2020/12/15 02:38:31;;;;;;;3.92;2.97;;;9.20;99.90;;;;;;5094104;28;20468;-73
2020/12/15 02:40:57;;;;;;;6.82;2.55;;;9.10;99.90;;;;;;5094098;28;20052;-73
2020/12/15 02:43:22;;;;;;;4.10;2.63;;;9.10;99.90;;;;;;5093827;28;20021;-73
2020/12/15 02:45:48;;;;;;;4.50;2.65;;;9.10;99.90;;;;;;5092546;28;20420;-73
2020/12/15 02:48:13;;;;;;;5.07;3.25;;;9.10;99.90;;;;;;5092598;28;20099;-73
2020/12/15 02:50:39;;;;;;;3.17;2.58;;;9.10;99.90;;;;;;5092197;28;20024;-73
2020/12/15 02:53:05;;;;;;;4.43;2.97;;;9.00;99.90;;;;;;5093743;28;20027;-73
2020/12/15 02:55:30;;;;;;;4.20;2.90;;;8.90;99.90;;;;;;5093990;28;20020;-73
2020/12/15 02:57:56;;;;;;;5.97;3.55;;;8.90;99.90;;;;;;5098110;28;20024;-73
2020/12/15 03:00:22;;;;;;;5.38;3.25;;;8.90;99.90;;;;;;5097485;28;20384;-73
2020/12/15 03:02:48;;;;;;;5.10;2.97;;;8.90;99.90;;;;;;5098009;28;20020;-73
2020/12/15 03:05:14;;;;;;;5.82;3.28;;;9.00;99.90;;;;;;5096500;28;20020;-73
2020/12/15 03:07:40;;;;;;;6.07;4.28;;;8.90;99.90;;;;;;5079324;28;20024;-73
2020/12/15 03:10:07;;;;;;;5.20;3.60;;;8.90;99.90;;;;;;5096682;28;20081;-73
2020/12/15 03:12:32;;;;;;;7.20;3.75;;;8.90;99.90;;;;;;5096334;28;20032;-73
2020/12/15 03:14:58;;;;;;;5.55;3.90;;;8.80;99.90;;;;;;5095875;28;20035;-73
2020/12/15 03:17:23;;;;;;;5.95;4.25;;;8.70;99.90;;;;;;5097692;28;20020;-73
2020/12/15 03:19:49;;;;;;;5.03;4.00;;;8.60;99.90;;;;;;5095816;28;20059;-73
2020/12/15 03:22:15;;;;;;;5.55;4.18;;;8.60;99.90;;;;;;5096483;28;20027;-73
2020/12/15 03:24:41;;;;;;;5.78;3.88;;;8.50;99.90;;;;;;5078919;28;20024;-73
2020/12/15 03:27:07;;;;;;;5.32;3.55;;;8.50;99.90;;;;;;5095719;28;20039;-73
2020/12/15 03:29:32;;;;;;;6.35;3.92;;;8.60;99.90;;;;;;5095952;28;20028;-73
2020/12/15 03:31:59;;;;;;;6.18;4.18;;;8.60;99.90;;;;;;5095593;28;20103;-73
2020/12/15 03:34:24;;;;;;;5.20;3.53;;;8.60;99.90;;;;;;5095635;28;20046;-73
2020/12/15 03:36:50;;;;;;;9.13;4.00;;;8.60;99.90;;;;;;5097320;28;20024;-72
2020/12/15 03:39:15;;;;;;;5.07;4.00;;;8.60;99.90;;;;;;5096136;28;20027;-72
2020/12/15 03:41:41;;;;;;;7.75;4.22;;;8.70;99.90;;;;;;5095433;28;20397;-72
2020/12/15 03:44:07;;;;;;;6.80;4.15;;;8.70;99.90;;;;;;5096679;28;20150;-72
2020/12/15 03:46:32;;;;;;;5.15;3.92;;;8.60;99.90;;;;;;5096177;28;20135;-73
2020/12/15 03:48:58;;;;;;;7.25;4.18;;;8.70;99.90;;;;;;5096530;28;20032;-72
2020/12/15 03:51:24;;;;;;;6.57;4.40;;;8.70;99.90;;;;;;5095241;28;20024;-72
2020/12/15 03:53:49;;;;;;;7.47;4.90;;;8.60;99.90;;;;;;5095231;28;20109;-72
2020/12/15 03:56:15;;;;;;;5.95;4.63;;;8.60;99.90;;;;;;5095180;28;20020;-72
2020/12/15 03:58:41;;;;;;;10.70;5.40;;;8.60;99.90;;;;;;5078250;28;20042;-72
2020/12/15 04:01:07;;;;;;;7.50;4.60;;;8.50;99.90;;;;;;5096587;28;20020;-72
2020/12/15 04:03:33;;;;;;;6.00;4.43;;;8.50;99.90;;;;;;5096855;28;20411;-72
2020/12/15 04:05:58;;;;;;;10.82;5.40;;;8.50;99.90;;;;;;5094855;28;20369;-72
2020/12/15 04:08:25;;;;;;;6.25;4.82;;;8.50;99.90;;;;;;5096455;28;20070;-72
2020/12/15 04:10:51;;;;;;;8.90;5.25;;;8.50;99.90;;;;;;5095214;28;20016;-72
2020/12/15 04:13:17;;;;;;;8.25;5.45;;;8.50;99.90;;;;;;5096344;28;20020;-72
2020/12/15 04:15:42;;;;;;;7.88;5.20;;;8.40;99.90;;;;;;5096518;28;20031;-72
2020/12/15 04:18:08;;;;;;;7.75;5.22;;;8.40;99.90;;;;;;5077913;28;20024;-72
2020/12/15 04:20:34;;;;;;;8.15;5.00;;;8.40;99.90;;;;;;5096465;28;20027;-72
2020/12/15 04:22:59;;;;;;;7.72;5.22;;;8.40;99.90;;;;;;5094607;28;20029;-72
2020/12/15 04:25:25;;;;;;;7.90;5.72;;;8.40;99.90;;;;;;5095438;28;20028;-72
2020/12/15 04:27:50;;;;;;;9.38;5.55;;;8.40;99.90;;;;;;5096101;28;20168;-72
2020/12/15 04:30:16;;;;;;;7.55;5.53;;;8.30;99.90;;;;;;5095309;28;20027;-72
2020/12/15 04:32:42;;;;;;;7.70;5.63;;;8.40;99.90;;;;;;5094857;28;20099;-72
2020/12/15 04:35:08;;;;;;;9.45;6.40;;;8.30;99.90;;;;;;5077508;28;20044;-72
2020/12/15 04:37:33;;;;;;;11.82;6.70;;;8.30;99.90;;;;;;5096160;28;20480;-72
2020/12/15 04:39:59;;;;;;;8.82;6.32;;;8.30;99.90;;;;;;5096115;28;20477;-72
2020/12/15 04:42:25;;;;;;;11.55;6.22;;;8.30;99.90;;;;;;5094621;28;20020;-72
2020/12/15 04:44:51;;;;;;;11.45;6.30;;;8.30;99.90;;;;;;5094229;28;20377;-72
2020/12/15 04:47:22;;;;;;;8.32;6.30;;;8.30;99.90;;;;;;5094175;28;20043;-72
2020/12/15 04:49:59;;;;;;;9.65;6.60;;;8.30;99.90;;;;;;5094830;28;20028;-72
2020/12/15 04:52:49;;;;;;;10.23;6.50;;;8.30;99.90;;;;;;5078275;28;20035;-72
2020/12/15 04:55:16;;;;;;;10.73;7.35;;;8.20;99.90;;;;;;5095122;28;20028;-72
2020/12/15 04:57:45;;;;;;;13.07;7.05;;;8.20;99.90;;;;;;5093934;28;20031;-72
2020/12/15 05:00:10;;;;;;;8.82;6.63;;;8.20;99.90;;;;;;5095456;28;20024;-72
2020/12/15 05:02:41;;;;;;;11.00;7.13;;;8.20;99.90;;;;;;5095715;28;20393;-72
2020/12/15 05:05:07;;;;;;;11.48;7.40;;;8.20;99.90;;;;;;5094181;28;20385;-72
2020/12/15 05:07:39;;;;;;;11.45;7.82;;;8.20;99.90;;;;;;5094453;28;20016;-72
2020/12/15 05:10:06;;;;;;;10.57;7.20;;;8.20;99.90;;;;;;5095570;28;20101;-72
2020/12/15 05:12:32;;;;;;;8.65;6.55;;;8.20;99.90;;;;;;5076970;28;20166;-72
2020/12/15 05:14:57;;;;;;;11.40;6.85;;;8.10;99.90;;;;;;5095084;28;20062;-72
2020/12/15 05:17:24;;;;;;;10.63;7.22;;;8.20;99.90;;;;;;5093688;28;20024;-72
2020/12/15 05:19:50;;;;;;;10.10;7.18;;;8.20;99.90;;;;;;5093043;28;20425;-72
2020/12/15 05:22:15;;;;;;;12.27;7.22;;;8.10;99.90;;;;;;5095289;28;20028;-72
2020/12/15 05:24:48;;;;;;;12.60;7.55;;;8.20;99.90;;;;;;5094076;28;20047;-72
2020/12/15 05:27:16;;;;;;;11.73;7.83;;;8.10;99.90;;;;;;5094127;28;20089;-72
2020/12/15 05:29:41;;;;;;;12.68;8.48;;;8.10;99.90;;;;;;5093729;28;20032;-72
2020/12/15 05:32:08;;;;;;;12.70;8.23;;;8.10;99.90;;;;;;5094828;28;20028;-72
2020/12/15 05:34:34;;;;;;;12.27;8.38;;;8.10;99.90;;;;;;5094373;28;20562;-72
2020/12/15 05:37:01;;;;;;;13.15;8.57;;;8.00;99.90;;;;;;5093160;28;20024;-72
2020/12/15 05:39:28;;;;;;;11.43;8.32;;;8.00;99.90;;;;;;5093816;28;20040;-72
2020/12/15 05:42:09;;;;;;;12.98;8.40;;;8.00;99.90;;;;;;5094960;28;20017;-72
2020/12/15 05:44:37;;;;;;;12.25;8.80;;;8.00;99.90;;;;;;5076223;28;20024;-72
2020/12/15 05:47:05;;;;;;;13.82;8.80;;;8.00;99.90;;;;;;5077108;28;20036;-72
2020/12/15 05:49:33;;;;;;;12.95;8.80;;;8.00;99.90;;;;;;5076651;28;20050;-72
2020/12/15 05:51:59;;;;;;;15.13;9.23;;;8.00;99.90;;;;;;5093313;28;20484;-72
2020/12/15 05:54:25;;;;;;;16.67;10.07;;;8.00;99.90;;;;;;5092823;28;20028;-72
2020/12/15 05:57:07;;;;;;;17.20;10.00;;;8.00;99.90;;;;;;5094431;28;20024;-72
2020/12/15 05:59:34;;;;;;;14.90;9.75;;;8.00;99.90;;;;;;5093690;28;20030;-72
2020/12/15 06:02:07;;;;;;;14.25;9.35;;;8.00;99.90;;;;;;5093142;28;20016;-72
2020/12/15 06:04:34;;;;;;;14.27;9.43;;;8.00;99.90;;;;;;5093091;28;20462;-72
2020/12/15 06:07:02;;;;;;;14.13;9.80;;;8.00;99.90;;;;;;5093036;28;20481;-72
2020/12/15 06:09:30;;;;;;;13.25;9.60;;;8.00;99.90;;;;;;5093042;28;20477;-72
2020/12/15 06:11:55;;;;;;;17.33;9.98;;;8.00;99.90;;;;;;5093034;28;20103;-72
2020/12/15 06:14:25;;;;;;;18.65;10.65;;;8.10;99.90;;;;;;5075588;28;20434;-72
2020/12/15 06:16:51;;;;;;;13.90;10.05;;;8.10;99.90;;;;;;5092959;28;20028;-72
2020/12/15 06:19:18;;;;;;;16.30;10.43;;;8.10;99.90;;;;;;5075677;28;20073;-72
2020/12/15 06:21:50;;;;;;;17.63;10.43;;;8.10;99.90;;;;;;5094334;28;20012;-72
2020/12/15 06:24:40;;;;;;;15.60;9.52;;;8.10;99.90;;;;;;5093764;28;20020;-72
2020/12/15 06:27:08;;;;;;;15.30;10.13;;;8.10;99.90;;;;;;5093864;28;20373;-72
2020/12/15 06:29:36;;;;;;;16.58;10.32;;;8.10;99.90;;;;;;5092562;28;20039;-72
2020/12/15 06:32:07;;;;;;;14.48;10.25;;;8.10;99.90;;;;;;5090252;28;20119;-67
2020/12/15 06:34:32;;;;;;;15.27;10.27;;;8.10;99.90;;;;;;5092795;28;20079;-69
2020/12/15 06:36:59;;;;;;;15.95;10.80;;;8.10;99.90;;;;;;5091706;28;20055;-68
2020/12/15 06:39:27;;;;;;;16.33;10.43;;;8.10;99.90;;;;;;5093156;28;20031;-67
2020/12/15 06:42:01;;;;;;;16.58;10.57;;;8.10;99.90;;;;;;5092470;28;20012;-68
2020/12/15 06:44:30;;;;;;;17.52;10.43;;;8.10;99.90;;;;;;5091122;28;20016;-68
2020/12/15 06:46:56;;;;;;;18.75;11.05;;;8.10;99.90;;;;;;5092100;28;20032;-68
2020/12/15 06:49:33;;;;;;;16.73;10.48;;;8.10;99.90;;;;;;5092471;28;20020;-68
2020/12/15 06:52:00;;;;;;;18.33;10.88;;;8.00;99.90;;;;;;5093681;28;20028;-69
2020/12/15 06:54:28;;;;;;;15.45;10.63;;;8.00;99.90;;;;;;5093020;28;20032;-69
2020/12/15 06:57:03;;;;;;;17.60;10.88;;;8.00;99.90;;;;;;5092347;28;20020;-69
2020/12/15 06:59:35;;;;;;;16.98;11.10;;;8.00;99.90;;;;;;5092177;28;20032;-68
2020/12/15 07:02:12;;;;;;;18.30;11.07;;;8.00;99.90;;;;;;5092801;28;20073;-68
2020/12/15 07:04:42;;;;;;;19.13;11.90;;;7.90;99.90;;;;;;5092606;28;20473;-68
2020/12/15 07:07:07;;;;;;;16.92;11.82;;;7.90;99.90;;;;;;5091294;28;20122;-67
2020/12/15 07:09:33;;;;;;;17.85;11.68;;;7.80;99.90;;;;;;5092273;28;20516;-68
2020/12/15 07:12:01;;;;;;;19.85;11.27;;;7.90;99.90;;;;;;5092733;28;20430;-68
2020/12/15 07:14:26;;;;;;;17.55;11.13;;;7.90;99.90;;;;;;5091475;28;20093;-67
2020/12/15 07:16:55;;;;;;;17.42;11.05;;;8.00;99.90;;;;;;5092464;28;20035;-68
2020/12/15 07:19:23;;;;;;;17.70;11.85;;;8.00;99.90;;;;;;5091638;28;20106;-67
2020/12/15 07:21:48;;;;;;;17.45;10.80;;;8.00;99.90;;;;;;5091624;28;20473;-68
2020/12/15 07:24:14;;;;;;;15.57;10.43;;;8.00;99.90;;;;;;5091333;28;20054;-67
2020/12/15 07:26:40;;;;;;;17.55;12.00;;;8.00;99.90;;;;;;5093044;28;20429;-67
2020/12/15 07:29:07;;;;;;;17.13;11.25;;;8.00;99.90;;;;;;5092978;28;20095;-66
2020/12/15 07:31:33;;;;;;;20.55;10.98;;;8.00;99.90;;;;;;5092781;28;20032;-66
2020/12/15 07:34:11;;;;;;;15.27;11.43;;;8.10;99.90;;;;;;5090727;28;20043;-66
2020/12/15 07:36:40;;;;;;;21.27;11.15;;;8.10;99.90;;;;;;5072689;28;20031;-66
2020/12/15 07:39:06;;;;;;;16.38;11.27;;;8.10;99.90;;;;;;5091598;28;20020;-66
2020/12/15 07:41:55;;;;;;;16.70;11.73;;;8.10;99.90;;;;;;5092511;28;20065;-66
2020/12/15 07:44:21;;;;;;;16.88;11.93;;;8.10;99.90;;;;;;5061775;28;20036;-66
2020/12/15 07:46:48;;;;;;;19.63;11.80;;;8.10;99.90;;;;;;5094391;28;20024;-66
2020/12/15 07:49:14;;;;;;;16.35;12.30;;;8.20;99.90;;;;;;5094648;28;20036;-66
2020/12/15 07:51:41;;;;;;;17.25;11.95;;;8.20;99.90;;;;;;5096483;28;20028;-66
2020/12/15 07:54:07;;;;;;;19.38;12.07;;;8.20;99.90;;;;;;5096019;28;20024;-66
2020/12/15 07:56:33;;;;;;;16.17;11.90;;;8.20;99.90;;;;;;5107099;28;20016;-66
2020/12/15 07:58:59;;;;;;;20.27;13.07;;;8.20;99.90;;;;;;5108314;28;20028;-64
2020/12/15 08:01:28;;;;;;;19.13;12.93;;;8.30;99.90;;;;;;5095057;28;20035;-64
2020/12/15 08:04:11;;;;;;;16.45;12.70;;;8.30;99.90;;;;;;5094486;28;20538;-66
2020/12/15 08:06:39;;;;;;;17.98;12.25;;;8.30;99.90;;;;;;5094572;28;20032;-66
2020/12/15 08:09:07;;;;;;;16.88;12.68;;;8.30;99.90;;;;;;5095146;28;20466;-64
2020/12/15 08:11:33;;;;;;;18.85;13.25;;;8.40;99.90;;;;;;5096096;28;20381;-66
2020/12/15 08:14:01;;;;;;;21.05;12.95;;;8.40;99.90;;;;;;5095692;28;20035;-66
2020/12/15 08:16:27;;;;;;;15.98;12.27;;;8.40;99.90;;;;;;5094755;28;20111;-67
2020/12/15 08:19:01;;;;;;;20.27;12.40;;;8.40;99.90;;;;;;5095557;28;20039;-64
2020/12/15 08:21:48;;;;;;;18.63;11.63;;;8.50;99.90;;;;;;5095711;28;20066;-65
2020/12/15 08:24:18;;;;;;;18.90;13.15;;;8.50;99.90;;;;;;5076824;28;20028;-66
2020/12/15 08:26:45;;;;;;;19.77;12.75;;;8.50;99.90;;;;;;5077126;28;20032;-66
2020/12/15 08:29:13;;;;;;;19.30;13.07;;;8.40;99.90;;;;;;5095665;28;20032;-66
2020/12/15 08:31:42;;;;;;;20.77;13.43;;;8.40;99.90;;;;;;5095039;28;20074;-66
2020/12/15 08:34:14;;;;;;;18.88;13.02;;;8.50;99.90;;;;;;5094549;28;20051;-66
2020/12/15 08:36:43;;;;;;;21.40;12.35;;;8.50;99.90;;;;;;5110040;28;20027;-66
2020/12/15 08:39:11;;;;;;;15.50;11.80;;;8.50;99.90;;;;;;5074160;28;20025;-67
2020/12/15 08:41:49;;;;;;;19.45;12.63;;;8.60;99.90;;;;;;5085288;28;20038;-64
2020/12/15 08:44:17;;;;;;;19.17;12.68;;;8.60;99.90;;;;;;5094810;28;20024;-65
2020/12/15 08:46:44;;;;;;;17.17;12.43;;;8.60;99.90;;;;;;5095014;28;20027;-64
2020/12/15 08:49:11;;;;;;;19.45;12.88;;;8.70;99.90;;;;;;5094691;28;20031;-65
2020/12/15 08:51:40;;;;;;;16.55;12.07;;;8.80;99.90;;;;;;5093467;28;20040;-66
2020/12/15 08:54:06;;;;;;;17.25;12.38;;;8.80;99.90;;;;;;5094536;28;20028;-65
2020/12/15 08:56:34;;;;;;;19.83;12.98;;;8.80;99.90;;;;;;5093792;28;20016;-63
2020/12/15 08:59:19;;;;;;;20.70;13.75;;;8.90;99.90;;;;;;5094339;28;20454;-65
2020/12/15 09:01:45;;;;;;;20.13;13.40;;;8.90;99.90;;;;;;5093297;28;20027;-65
2020/12/15 09:04:12;;;;;;;19.02;12.95;;;8.90;99.90;;;;;;5094756;28;20107;-64
2020/12/15 09:06:40;;;;;;;20.85;13.77;;;8.90;99.90;;;;;;5093762;28;20080;-64
2020/12/15 09:09:07;;;;;;;24.42;15.00;;;8.90;99.90;;;;;;5095002;28;20020;-64
2020/12/15 09:11:33;;;;;;;27.65;17.25;;;8.90;99.90;;;;;;5094509;28;20063;-64
2020/12/15 09:14:01;;;;;;;19.52;14.23;;;8.90;99.90;;;;;;5094205;28;20024;-64
2020/12/15 09:16:29;;;;;;;20.08;15.10;;;8.90;99.90;;;;;;5074588;28;20024;-63
2020/12/15 09:18:55;;;;;;;20.40;14.23;;;8.90;99.90;;;;;;5094096;28;20069;-64
2020/12/15 09:21:20;;;;;;;20.55;14.82;;;8.90;99.90;;;;;;5093301;28;20095;-64
2020/12/15 09:23:51;;;;;;;21.13;13.27;;;8.90;99.90;;;;;;5092187;28;20031;-64
2020/12/15 09:26:18;;;;;;;20.00;12.82;;;8.90;99.90;;;;;;5093509;28;20024;-64
2020/12/15 09:28:44;;;;;;;19.83;13.30;;;9.00;99.90;;;;;;5093162;28;20099;-66
2020/12/15 09:31:12;;;;;;;21.80;13.88;;;9.00;99.90;;;;;;5075735;28;20500;-64
2020/12/15 09:33:38;;;;;;;19.05;12.75;;;9.10;99.90;;;;;;5090311;28;20044;-64
2020/12/15 09:36:03;;;;;;;17.77;13.02;;;9.20;99.90;;;;;;5092316;28;20756;-63
2020/12/15 09:38:29;;;;;;;24.90;14.10;;;9.20;99.90;;;;;;5093585;28;20027;-63
2020/12/15 09:40:54;;;;;;;19.88;13.63;;;9.20;99.90;;;;;;5093115;28;20094;-64
2020/12/15 09:43:20;;;;;;;19.77;11.63;;;9.20;99.90;;;;;;5093192;28;20616;-62
2020/12/15 09:45:45;;;;;;;23.98;12.75;;;9.30;99.90;;;;;;5092786;28;20362;-62
2020/12/15 09:48:11;;;;;;;17.48;11.70;;;9.30;99.90;;;;;;5093234;28;20481;-62
2020/12/15 09:50:37;;;;;;;15.63;11.32;;;9.30;99.90;;;;;;5093940;28;20023;-62
2020/12/15 09:53:03;;;;;;;16.77;11.23;;;9.30;99.90;;;;;;5092756;28;20024;-64
2020/12/15 09:55:28;;;;;;;15.73;10.85;;;9.30;99.90;;;;;;5072980;28;20082;-64
2020/12/15 09:57:54;;;;;;;16.33;10.82;;;9.40;99.90;;;;;;5073271;28;20032;-64
2020/12/15 10:00:20;;;;;;;12.65;10.00;;;9.40;99.90;;;;;;5072485;28;20032;-64
2020/12/15 10:02:46;;;;;;;13.93;10.05;;;9.40;99.90;;;;;;5073524;28;20016;-64
2020/12/15 10:05:12;;;;;;;17.45;10.82;;;9.40;99.90;;;;;;5091055;28;20020;-64
2020/12/15 10:07:38;;;;;;;11.82;8.45;;;9.50;99.90;;;;;;5091557;28;20429;-64
2020/12/15 10:10:04;;;;;;;14.82;9.02;;;9.50;99.90;;;;;;5093799;28;20032;-64
2020/12/15 10:12:30;;;;;;;10.35;8.05;;;9.50;99.90;;;;;;5093028;28;20043;-64
2020/12/15 10:14:56;;;;;;;35.97;9.85;;;9.60;99.90;;;;;;5093100;28;20020;-64
2020/12/15 10:17:21;;;;;;;11.27;7.32;;;9.60;99.90;;;;;;5093248;28;20031;-65
2020/12/15 10:19:47;;;;;;;12.55;8.05;;;9.70;99.90;;;;;;5092194;28;20034;-64
2020/12/15 10:22:12;;;;;;;10.48;8.27;;;9.70;99.90;;;;;;5092398;28;20020;-64
2020/12/15 10:24:38;;;;;;;14.20;8.18;;;9.70;99.90;;;;;;5092809;28;20028;-65
2020/12/15 10:27:04;;;;;;;13.60;7.97;;;9.70;99.90;;;;;;5074928;28;20070;-65
2020/12/15 10:29:30;;;;;;;12.05;8.90;;;9.70;99.90;;;;;;5092454;28;20104;-65
2020/12/15 10:31:56;;;;;;;11.60;9.10;;;9.70;99.90;;;;;;5092181;28;20055;-65
2020/12/15 10:34:22;;;;;;;13.70;8.75;;;9.60;99.90;;;;;;5092240;28;20097;-65
2020/12/15 10:36:49;;;;;;;10.15;7.45;;;9.70;99.90;;;;;;5092163;28;20012;-64
2020/12/15 10:39:15;;;;;;;17.42;8.60;;;9.60;99.90;;;;;;5091399;28;20075;-65
2020/12/15 10:41:41;;;;;;;17.05;8.85;;;9.60;99.90;;;;;;5092357;28;20398;-64
2020/12/15 10:44:14;;;;;;;10.75;7.30;;;9.60;99.90;;;;;;5091845;28;20039;-65
2020/12/15 10:46:41;;;;;;;13.00;7.97;;;9.60;99.90;;;;;;5092112;28;20415;-65
2020/12/15 10:49:07;;;;;;;11.48;8.77;;;9.60;99.90;;;;;;5090592;28;20023;-66
2020/12/15 10:51:33;;;;;;;10.88;7.80;;;9.60;99.90;;;;;;5090493;28;20036;-65
2020/12/15 10:53:58;;;;;;;19.33;9.27;;;9.60;99.90;;;;;;5091724;28;20024;-65
2020/12/15 10:56:24;;;;;;;12.98;8.57;;;9.70;99.90;;;;;;5091187;28;20376;-66
2020/12/15 10:58:50;;;;;;;10.90;8.25;;;9.70;99.90;;;;;;5091217;28;20471;-64
2020/12/15 11:01:15;;;;;;;11.20;7.97;;;9.70;99.90;;;;;;5090789;28;20016;-65
2020/12/15 11:03:41;;;;;;;11.20;7.88;;;9.70;99.90;;;;;;5091834;28;20028;-65
2020/12/15 11:06:06;;;;;;;10.18;7.88;;;9.80;99.90;;;;;;5091698;28;20039;-65
2020/12/15 11:08:32;;;;;;;10.15;7.53;;;9.80;99.90;;;;;;5091790;28;20385;-65
2020/12/15 11:10:58;;;;;;;11.93;8.50;;;9.90;99.90;;;;;;5091173;28;20055;-65
2020/12/15 11:13:24;;;;;;;9.60;7.57;;;10.00;99.90;;;;;;5091249;28;20035;-65
2020/12/15 11:15:49;;;;;;;12.05;8.38;;;10.00;99.90;;;;;;5090467;28;20081;-65
2020/12/15 11:18:16;;;;;;;10.35;7.32;;;10.00;99.90;;;;;;5095689;28;20095;-65
2020/12/15 11:20:41;;;;;;;9.02;6.88;;;10.00;99.90;;;;;;5096510;28;20359;-65
2020/12/15 11:23:07;;;;;;;8.68;6.97;;;10.00;99.90;;;;;;5095053;28;20026;-65
2020/12/15 11:25:33;;;;;;;8.95;6.72;;;10.00;99.90;;;;;;5094651;28;20020;-65
2020/12/15 11:27:58;;;;;;;11.48;6.80;;;10.00;99.90;;;;;;5095575;28;20362;-65
2020/12/15 11:30:24;;;;;;;9.77;7.07;;;10.00;99.90;;;;;;5095907;28;20036;-65
2020/12/15 11:32:49;;;;;;;9.25;6.72;;;10.00;99.90;;;;;;5077580;28;20023;-65
2020/12/15 11:35:15;;;;;;;13.10;7.18;;;10.00;99.90;;;;;;5096424;28;20048;-65
2020/12/15 11:37:43;;;;;;;7.90;5.90;;;9.90;99.90;;;;;;5094158;28;20115;-65
2020/12/15 11:40:10;;;;;;;9.20;6.75;;;9.90;99.90;;;;;;5094263;28;20093;-65
2020/12/15 11:42:36;;;;;;;10.88;6.78;;;10.00;99.90;;;;;;5094954;28;20026;-65
2020/12/15 11:45:04;;;;;;;9.27;6.30;;;10.00;99.90;;;;;;5094969;28;20108;-65
2020/12/15 11:47:29;;;;;;;10.73;6.95;;;10.00;99.90;;;;;;5095590;28;20036;-65
2020/12/15 11:49:55;;;;;;;10.30;7.15;;;10.00;99.90;;;;;;5095820;28;20571;-64
2020/12/15 11:52:20;;;;;;;16.33;8.40;;;10.00;99.90;;;;;;5095628;28;20389;-64
2020/12/15 11:54:46;;;;;;;14.35;9.13;;;10.00;99.90;;;;;;5077490;28;20110;-65
2020/12/15 11:57:14;;;;;;;19.13;12.00;;;9.90;99.90;;;;;;5095476;28;20035;-65
2020/12/15 11:59:40;;;;;;;18.40;11.57;;;9.90;99.90;;;;;;5093849;28;20440;-65
2020/12/15 12:02:06;;;;;;;13.13;9.35;;;9.80;99.90;;;;;;5095325;28;20016;-65
2020/12/15 12:04:32;;;;;;;10.95;6.97;;;9.80;99.90;;;;;;5094811;28;20142;-65
2020/12/15 12:06:57;;;;;;;10.40;5.88;;;9.90;99.90;;;;;;5096122;28;20028;-64
2020/12/15 12:09:23;;;;;;;8.27;6.10;;;9.90;99.90;;;;;;5095462;28;20609;-65
2020/12/15 12:11:50;;;;;;;9.50;5.20;;;9.90;99.90;;;;;;5094955;28;20107;-66
2020/12/15 12:14:17;;;;;;;8.00;5.65;;;9.90;99.90;;;;;;5095097;28;20024;-65
2020/12/15 12:16:43;;;;;;;9.57;5.47;;;9.90;99.90;;;;;;5095476;28;20399;-65
2020/12/15 12:19:08;;;;;;;8.82;5.82;;;9.90;99.90;;;;;;5093653;28;20016;-65
2020/12/15 12:21:34;;;;;;;10.02;6.82;;;9.90;99.90;;;;;;5095326;28;20469;-66
2020/12/15 12:24:00;;;;;;;11.73;7.07;;;9.90;99.90;;;;;;5093634;28;20028;-67
2020/12/15 12:26:26;;;;;;;13.95;6.65;;;10.00;99.90;;;;;;5094399;28;20024;-67
2020/12/15 12:28:53;;;;;;;8.95;6.57;;;10.00;99.90;;;;;;5094475;28;20040;-67
2020/12/15 12:31:19;;;;;;;10.60;7.15;;;10.00;99.90;;;;;;5093553;28;20028;-66
2020/12/15 12:33:45;;;;;;;12.65;7.70;;;10.00;99.90;;;;;;5093943;28;20036;-67
2020/12/15 12:36:10;;;;;;;9.27;6.70;;;9.90;99.90;;;;;;5093688;28;20436;-67
2020/12/15 12:38:36;;;;;;;11.02;6.80;;;9.90;99.90;;;;;;5093760;28;20401;-67
2020/12/15 12:41:02;;;;;;;11.68;7.38;;;9.90;99.90;;;;;;5093425;28;20434;-67
2020/12/15 12:43:27;;;;;;;11.32;7.80;;;9.90;99.90;;;;;;5093508;28;20024;-67
2020/12/15 12:45:53;;;;;;;11.75;6.60;;;9.90;99.90;;;;;;5094371;28;20094;-67